sensor_id;sensor_type;location;lat;lon;timestamp;P1;durP1;ratioP1;P2;durP2;ratioP2
8435;SDS011;4255;48.730;9.156;2023-04-03T00:00:30;5.43;;;5.03;;
8435;SDS011;4255;48.730;9.156;2023-04-03T00:02:56;6.30;;;5.80;;
8435;SDS011;4255;48.730;9.156;2023-04-03T00:05:22;5.40;;;4.67;;
8435;SDS011;4255;48.730;9.156;2023-04-03T00:07:47;6.10;;;5.50;;
8435;SDS011;4255;48.730;9.156;2023-04-03T00:10:14;5.72;;;5.20;;
8435;SDS011;4255;48.730;9.156;2023-04-03T00:12:40;7.45;;;5.57;;
8435;SDS011;4255;48.730;9.156;2023-04-03T00:15:06;6.43;;;5.83;;
8435;SDS011;4255;48.730;9.156;2023-04-03T00:17:32;8.20;;;5.40;;
8435;SDS011;4255;48.730;9.156;2023-04-03T00:19:58;5.90;;;5.50;;
8435;SDS011;4255;48.730;9.156;2023-04-03T00:22:23;6.40;;;5.90;;
8435;SDS011;4255;48.730;9.156;2023-04-03T00:24:51;8.48;;;5.90;;
8435;SDS011;4255;48.730;9.156;2023-04-03T00:27:17;8.67;;;5.80;;
8435;SDS011;4255;48.730;9.156;2023-04-03T00:29:42;6.20;;;5.60;;
8435;SDS011;4255;48.730;9.156;2023-04-03T00:32:08;5.47;;;5.00;;
8435;SDS011;4255;48.730;9.156;2023-04-03T00:34:34;5.50;;;4.97;;
8435;SDS011;4255;48.730;9.156;2023-04-03T00:36:59;7.53;;;6.77;;
8435;SDS011;4255;48.730;9.156;2023-04-03T00:39:25;5.77;;;5.03;;
8435;SDS011;4255;48.730;9.156;2023-04-03T00:41:50;6.50;;;5.80;;
8435;SDS011;4255;48.730;9.156;2023-04-03T00:45:24;6.33;;;5.40;;
8435;SDS011;4255;48.730;9.156;2023-04-03T00:47:11;6.85;;;6.22;;
8435;SDS011;4255;48.730;9.156;2023-04-03T00:49:40;8.00;;;5.35;;
8435;SDS011;4255;48.730;9.156;2023-04-03T00:52:08;6.22;;;5.70;;
8435;SDS011;4255;48.730;9.156;2023-04-03T00:54:37;9.75;;;5.88;;
8435;SDS011;4255;48.730;9.156;2023-04-03T00:57:03;6.13;;;5.53;;
8435;SDS011;4255;48.730;9.156;2023-04-03T00:59:32;6.38;;;5.80;;
8435;SDS011;4255;48.730;9.156;2023-04-03T01:02:05;5.80;;;5.13;;
8435;SDS011;4255;48.730;9.156;2023-04-03T01:04:32;6.60;;;5.55;;
8435;SDS011;4255;48.730;9.156;2023-04-03T01:07:02;5.88;;;5.38;;
8435;SDS011;4255;48.730;9.156;2023-04-03T01:09:39;6.60;;;6.00;;
8435;SDS011;4255;48.730;9.156;2023-04-03T01:12:15;6.47;;;5.55;;
8435;SDS011;4255;48.730;9.156;2023-04-03T01:14:46;5.55;;;5.05;;
8435;SDS011;4255;48.730;9.156;2023-04-03T01:17:24;6.35;;;5.75;;
8435;SDS011;4255;48.730;9.156;2023-04-03T01:25:26;6.03;;;5.47;;
8435;SDS011;4255;48.730;9.156;2023-04-03T01:27:52;6.27;;;5.73;;
8435;SDS011;4255;48.730;9.156;2023-04-03T01:30:18;5.70;;;4.70;;
8435;SDS011;4255;48.730;9.156;2023-04-03T01:32:46;7.70;;;6.32;;
8435;SDS011;4255;48.730;9.156;2023-04-03T01:35:11;6.30;;;5.70;;
8435;SDS011;4255;48.730;9.156;2023-04-03T01:37:37;6.80;;;5.47;;
8435;SDS011;4255;48.730;9.156;2023-04-03T01:40:03;5.93;;;5.43;;
8435;SDS011;4255;48.730;9.156;2023-04-03T01:42:30;6.28;;;5.88;;
8435;SDS011;4255;48.730;9.156;2023-04-03T01:44:56;5.93;;;5.40;;
8435;SDS011;4255;48.730;9.156;2023-04-03T01:47:22;8.07;;;6.03;;
8435;SDS011;4255;48.730;9.156;2023-04-03T01:49:48;7.70;;;5.80;;
8435;SDS011;4255;48.730;9.156;2023-04-03T01:52:13;7.73;;;5.77;;
8435;SDS011;4255;48.730;9.156;2023-04-03T01:54:39;6.00;;;5.37;;
8435;SDS011;4255;48.730;9.156;2023-04-03T01:57:04;7.93;;;6.33;;
8435;SDS011;4255;48.730;9.156;2023-04-03T01:59:30;5.83;;;5.23;;
8435;SDS011;4255;48.730;9.156;2023-04-03T02:01:56;8.97;;;6.83;;
8435;SDS011;4255;48.730;9.156;2023-04-03T02:04:21;6.10;;;5.50;;
8435;SDS011;4255;48.730;9.156;2023-04-03T02:06:47;6.57;;;5.50;;
8435;SDS011;4255;48.730;9.156;2023-04-03T02:09:13;6.63;;;5.90;;
8435;SDS011;4255;48.730;9.156;2023-04-03T02:11:38;6.30;;;5.70;;
8435;SDS011;4255;48.730;9.156;2023-04-03T02:14:04;6.10;;;5.60;;
8435;SDS011;4255;48.730;9.156;2023-04-03T02:16:31;5.53;;;5.03;;
8435;SDS011;4255;48.730;9.156;2023-04-03T02:18:56;5.43;;;5.00;;
8435;SDS011;4255;48.730;9.156;2023-04-03T02:21:22;6.22;;;5.63;;
8435;SDS011;4255;48.730;9.156;2023-04-03T02:23:48;8.10;;;5.43;;
8435;SDS011;4255;48.730;9.156;2023-04-03T02:26:14;5.93;;;5.33;;
8435;SDS011;4255;48.730;9.156;2023-04-03T02:28:41;6.30;;;4.40;;
8435;SDS011;4255;48.730;9.156;2023-04-03T02:31:07;5.70;;;5.30;;
8435;SDS011;4255;48.730;9.156;2023-04-03T02:33:34;6.00;;;5.47;;
8435;SDS011;4255;48.730;9.156;2023-04-03T02:36:04;7.00;;;4.80;;
8435;SDS011;4255;48.730;9.156;2023-04-03T02:38:31;5.90;;;5.38;;
8435;SDS011;4255;48.730;9.156;2023-04-03T02:41:00;5.90;;;5.40;;
8435;SDS011;4255;48.730;9.156;2023-04-03T02:43:30;7.53;;;5.60;;
8435;SDS011;4255;48.730;9.156;2023-04-03T02:45:56;6.27;;;5.77;;
8435;SDS011;4255;48.730;9.156;2023-04-03T02:48:22;7.27;;;6.63;;
8435;SDS011;4255;48.730;9.156;2023-04-03T02:50:48;5.88;;;5.15;;
8435;SDS011;4255;48.730;9.156;2023-04-03T02:53:14;5.30;;;4.80;;
8435;SDS011;4255;48.730;9.156;2023-04-03T02:55:40;6.55;;;5.05;;
8435;SDS011;4255;48.730;9.156;2023-04-03T02:58:06;6.00;;;5.50;;
8435;SDS011;4255;48.730;9.156;2023-04-03T03:00:32;5.40;;;4.90;;
8435;SDS011;4255;48.730;9.156;2023-04-03T03:02:57;5.87;;;5.37;;
8435;SDS011;4255;48.730;9.156;2023-04-03T03:05:23;5.53;;;5.03;;
8435;SDS011;4255;48.730;9.156;2023-04-03T03:07:49;7.17;;;5.57;;
8435;SDS011;4255;48.730;9.156;2023-04-03T03:10:15;6.00;;;5.50;;
8435;SDS011;4255;48.730;9.156;2023-04-03T03:12:40;6.03;;;5.57;;
8435;SDS011;4255;48.730;9.156;2023-04-03T03:15:06;6.10;;;5.50;;
8435;SDS011;4255;48.730;9.156;2023-04-03T03:17:32;6.57;;;5.45;;
8435;SDS011;4255;48.730;9.156;2023-04-03T03:19:58;7.05;;;5.30;;
8435;SDS011;4255;48.730;9.156;2023-04-03T03:22:25;6.57;;;5.97;;
8435;SDS011;4255;48.730;9.156;2023-04-03T03:24:51;6.18;;;5.65;;
8435;SDS011;4255;48.730;9.156;2023-04-03T03:27:16;5.90;;;5.40;;
8435;SDS011;4255;48.730;9.156;2023-04-03T03:29:42;6.90;;;6.20;;
8435;SDS011;4255;48.730;9.156;2023-04-03T03:32:08;8.73;;;5.90;;
8435;SDS011;4255;48.730;9.156;2023-04-03T03:34:34;6.20;;;5.60;;
8435;SDS011;4255;48.730;9.156;2023-04-03T03:36:59;5.97;;;5.37;;
8435;SDS011;4255;48.730;9.156;2023-04-03T03:39:25;5.57;;;5.13;;
8435;SDS011;4255;48.730;9.156;2023-04-03T03:41:51;5.20;;;4.80;;
8435;SDS011;4255;48.730;9.156;2023-04-03T03:44:18;5.55;;;5.15;;
8435;SDS011;4255;48.730;9.156;2023-04-03T03:46:44;6.03;;;5.22;;
8435;SDS011;4255;48.730;9.156;2023-04-03T03:49:10;7.90;;;5.17;;
8435;SDS011;4255;48.730;9.156;2023-04-03T03:51:36;6.03;;;5.60;;
8435;SDS011;4255;48.730;9.156;2023-04-03T03:54:03;6.18;;;5.57;;
8435;SDS011;4255;48.730;9.156;2023-04-03T03:56:29;6.40;;;5.88;;
8435;SDS011;4255;48.730;9.156;2023-04-03T03:58:54;9.03;;;6.63;;
8435;SDS011;4255;48.730;9.156;2023-04-03T04:01:21;5.50;;;5.05;;
8435;SDS011;4255;48.730;9.156;2023-04-03T04:03:48;7.47;;;5.60;;
8435;SDS011;4255;48.730;9.156;2023-04-03T04:06:13;5.73;;;5.13;;
8435;SDS011;4255;48.730;9.156;2023-04-03T04:08:39;5.73;;;5.33;;
8435;SDS011;4255;48.730;9.156;2023-04-03T04:11:05;6.23;;;5.73;;
8435;SDS011;4255;48.730;9.156;2023-04-03T04:13:30;5.97;;;5.37;;
8435;SDS011;4255;48.730;9.156;2023-04-03T04:15:56;7.70;;;7.00;;
8435;SDS011;4255;48.730;9.156;2023-04-03T04:18:22;7.23;;;6.53;;
8435;SDS011;4255;48.730;9.156;2023-04-03T04:20:48;6.47;;;5.97;;
8435;SDS011;4255;48.730;9.156;2023-04-03T04:23:14;6.27;;;5.63;;
8435;SDS011;4255;48.730;9.156;2023-04-03T04:25:41;6.15;;;5.65;;
8435;SDS011;4255;48.730;9.156;2023-04-03T04:28:08;7.35;;;5.75;;
8435;SDS011;4255;48.730;9.156;2023-04-03T04:30:34;5.73;;;5.27;;
8435;SDS011;4255;48.730;9.156;2023-04-03T04:33:00;5.60;;;5.10;;
8435;SDS011;4255;48.730;9.156;2023-04-03T04:35:25;21.47;;;14.87;;
8435;SDS011;4255;48.730;9.156;2023-04-03T04:37:51;13.73;;;9.30;;
8435;SDS011;4255;48.730;9.156;2023-04-03T04:40:17;8.60;;;6.90;;
8435;SDS011;4255;48.730;9.156;2023-04-03T04:42:42;8.63;;;5.87;;
8435;SDS011;4255;48.730;9.156;2023-04-03T04:45:08;5.85;;;5.28;;
8435;SDS011;4255;48.730;9.156;2023-04-03T04:47:34;6.30;;;5.80;;
8435;SDS011;4255;48.730;9.156;2023-04-03T04:49:59;5.30;;;4.90;;
8435;SDS011;4255;48.730;9.156;2023-04-03T04:52:25;5.60;;;5.07;;
8435;SDS011;4255;48.730;9.156;2023-04-03T04:54:51;4.60;;;4.20;;
8435;SDS011;4255;48.730;9.156;2023-04-03T04:57:16;4.73;;;4.43;;
8435;SDS011;4255;48.730;9.156;2023-04-03T04:59:42;5.37;;;4.97;;
8435;SDS011;4255;48.730;9.156;2023-04-03T05:02:07;5.53;;;5.07;;
8435;SDS011;4255;48.730;9.156;2023-04-03T05:04:33;5.30;;;4.50;;
8435;SDS011;4255;48.730;9.156;2023-04-03T05:06:58;5.03;;;4.63;;
8435;SDS011;4255;48.730;9.156;2023-04-03T05:09:24;5.13;;;4.70;;
8435;SDS011;4255;48.730;9.156;2023-04-03T05:11:50;5.40;;;4.90;;
8435;SDS011;4255;48.730;9.156;2023-04-03T05:14:16;5.23;;;4.53;;
8435;SDS011;4255;48.730;9.156;2023-04-03T05:16:42;4.20;;;3.90;;
8435;SDS011;4255;48.730;9.156;2023-04-03T05:19:07;9.93;;;4.77;;
8435;SDS011;4255;48.730;9.156;2023-04-03T05:21:33;4.97;;;4.47;;
8435;SDS011;4255;48.730;9.156;2023-04-03T05:23:59;4.10;;;3.73;;
8435;SDS011;4255;48.730;9.156;2023-04-03T05:26:28;4.28;;;3.97;;
8435;SDS011;4255;48.730;9.156;2023-04-03T05:28:56;4.75;;;4.32;;
8435;SDS011;4255;48.730;9.156;2023-04-03T05:31:22;4.82;;;4.53;;
8435;SDS011;4255;48.730;9.156;2023-04-03T05:33:48;4.20;;;3.90;;
8435;SDS011;4255;48.730;9.156;2023-04-03T05:36:14;4.10;;;3.70;;
8435;SDS011;4255;48.730;9.156;2023-04-03T05:38:40;4.68;;;4.28;;
8435;SDS011;4255;48.730;9.156;2023-04-03T05:41:06;4.37;;;4.10;;
8435;SDS011;4255;48.730;9.156;2023-04-03T05:43:31;5.27;;;3.97;;
8435;SDS011;4255;48.730;9.156;2023-04-03T05:45:59;5.57;;;5.07;;
8435;SDS011;4255;48.730;9.156;2023-04-03T05:48:25;5.30;;;4.90;;
8435;SDS011;4255;48.730;9.156;2023-04-03T05:50:50;5.17;;;4.83;;
8435;SDS011;4255;48.730;9.156;2023-04-03T05:53:25;9.05;;;5.80;;
8435;SDS011;4255;48.730;9.156;2023-04-03T05:55:56;7.22;;;6.05;;
8435;SDS011;4255;48.730;9.156;2023-04-03T05:58:21;7.97;;;5.53;;
8435;SDS011;4255;48.730;9.156;2023-04-03T06:00:47;5.23;;;4.60;;
8435;SDS011;4255;48.730;9.156;2023-04-03T06:03:13;5.85;;;5.30;;
8435;SDS011;4255;48.730;9.156;2023-04-03T06:05:39;6.13;;;5.43;;
8435;SDS011;4255;48.730;9.156;2023-04-03T06:08:04;5.03;;;4.63;;
8435;SDS011;4255;48.730;9.156;2023-04-03T06:10:30;8.35;;;5.40;;
8435;SDS011;4255;48.730;9.156;2023-04-03T06:12:56;10.50;;;5.30;;
8435;SDS011;4255;48.730;9.156;2023-04-03T06:15:22;12.13;;;4.90;;
8435;SDS011;4255;48.730;9.156;2023-04-03T06:17:47;5.57;;;5.07;;
8435;SDS011;4255;48.730;9.156;2023-04-03T06:20:13;4.63;;;4.23;;
8435;SDS011;4255;48.730;9.156;2023-04-03T06:22:39;6.50;;;5.93;;
8435;SDS011;4255;48.730;9.156;2023-04-03T06:25:05;5.83;;;5.43;;
8435;SDS011;4255;48.730;9.156;2023-04-03T06:27:31;6.53;;;5.90;;
8435;SDS011;4255;48.730;9.156;2023-04-03T06:30:03;5.40;;;5.00;;
8435;SDS011;4255;48.730;9.156;2023-04-03T06:32:30;5.80;;;5.32;;
8435;SDS011;4255;48.730;9.156;2023-04-03T06:34:56;6.17;;;5.33;;
8435;SDS011;4255;48.730;9.156;2023-04-03T06:37:22;6.05;;;5.10;;
8435;SDS011;4255;48.730;9.156;2023-04-03T06:39:50;8.60;;;5.53;;
8435;SDS011;4255;48.730;9.156;2023-04-03T06:42:16;5.17;;;4.77;;
8435;SDS011;4255;48.730;9.156;2023-04-03T06:44:42;4.73;;;4.20;;
8435;SDS011;4255;48.730;9.156;2023-04-03T06:47:12;5.40;;;4.95;;
8435;SDS011;4255;48.730;9.156;2023-04-03T06:49:39;5.82;;;4.97;;
8435;SDS011;4255;48.730;9.156;2023-04-03T06:52:05;4.63;;;4.30;;
8435;SDS011;4255;48.730;9.156;2023-04-03T06:54:31;7.60;;;5.10;;
8435;SDS011;4255;48.730;9.156;2023-04-03T06:56:57;5.97;;;4.68;;
8435;SDS011;4255;48.730;9.156;2023-04-03T06:59:23;4.97;;;4.55;;
8435;SDS011;4255;48.730;9.156;2023-04-03T07:01:49;5.20;;;4.57;;
8435;SDS011;4255;48.730;9.156;2023-04-03T07:04:15;4.30;;;4.10;;
8435;SDS011;4255;48.730;9.156;2023-04-03T07:06:41;5.87;;;4.33;;
8435;SDS011;4255;48.730;9.156;2023-04-03T07:09:08;29.55;;;17.00;;
8435;SDS011;4255;48.730;9.156;2023-04-03T07:11:35;36.60;;;21.10;;
8435;SDS011;4255;48.730;9.156;2023-04-03T07:14:01;21.27;;;13.10;;
8435;SDS011;4255;48.730;9.156;2023-04-03T07:16:27;14.15;;;8.70;;
8435;SDS011;4255;48.730;9.156;2023-04-03T07:18:53;30.60;;;17.60;;
8435;SDS011;4255;48.730;9.156;2023-04-03T07:21:18;12.07;;;9.37;;
8435;SDS011;4255;48.730;9.156;2023-04-03T07:23:44;8.40;;;6.83;;
8435;SDS011;4255;48.730;9.156;2023-04-03T07:26:09;8.10;;;5.83;;
8435;SDS011;4255;48.730;9.156;2023-04-03T07:28:35;9.30;;;6.10;;
8435;SDS011;4255;48.730;9.156;2023-04-03T07:31:06;5.55;;;5.07;;
8435;SDS011;4255;48.730;9.156;2023-04-03T07:33:33;6.97;;;5.10;;
8435;SDS011;4255;48.730;9.156;2023-04-03T07:35:59;4.60;;;4.20;;
8435;SDS011;4255;48.730;9.156;2023-04-03T07:38:25;4.63;;;4.30;;
8435;SDS011;4255;48.730;9.156;2023-04-03T07:40:51;8.40;;;4.93;;
8435;SDS011;4255;48.730;9.156;2023-04-03T07:43:17;8.45;;;5.75;;
8435;SDS011;4255;48.730;9.156;2023-04-03T07:45:45;4.70;;;4.30;;
8435;SDS011;4255;48.730;9.156;2023-04-03T07:48:14;6.07;;;5.30;;
8435;SDS011;4255;48.730;9.156;2023-04-03T07:50:40;5.75;;;5.13;;
8435;SDS011;4255;48.730;9.156;2023-04-03T07:53:06;5.00;;;4.70;;
8435;SDS011;4255;48.730;9.156;2023-04-03T07:55:32;6.05;;;5.18;;
8435;SDS011;4255;48.730;9.156;2023-04-03T07:57:58;4.53;;;4.13;;
8435;SDS011;4255;48.730;9.156;2023-04-03T08:00:24;4.20;;;3.90;;
8435;SDS011;4255;48.730;9.156;2023-04-03T08:02:50;5.07;;;4.67;;
8435;SDS011;4255;48.730;9.156;2023-04-03T08:05:19;3.70;;;3.40;;
8435;SDS011;4255;48.730;9.156;2023-04-03T08:07:46;5.22;;;4.55;;
8435;SDS011;4255;48.730;9.156;2023-04-03T08:10:12;5.57;;;5.03;;
8435;SDS011;4255;48.730;9.156;2023-04-03T08:12:39;5.30;;;4.90;;
8435;SDS011;4255;48.730;9.156;2023-04-03T08:15:05;7.80;;;4.53;;
8435;SDS011;4255;48.730;9.156;2023-04-03T08:17:32;4.20;;;3.90;;
8435;SDS011;4255;48.730;9.156;2023-04-03T08:19:57;7.13;;;5.53;;
8435;SDS011;4255;48.730;9.156;2023-04-03T08:22:23;4.70;;;4.40;;
8435;SDS011;4255;48.730;9.156;2023-04-03T08:24:49;13.60;;;4.93;;
8435;SDS011;4255;48.730;9.156;2023-04-03T08:27:15;6.60;;;4.53;;
8435;SDS011;4255;48.730;9.156;2023-04-03T08:29:41;4.73;;;4.00;;
8435;SDS011;4255;48.730;9.156;2023-04-03T08:32:06;5.97;;;4.70;;
8435;SDS011;4255;48.730;9.156;2023-04-03T08:34:32;5.03;;;4.40;;
8435;SDS011;4255;48.730;9.156;2023-04-03T08:37:03;5.40;;;4.80;;
8435;SDS011;4255;48.730;9.156;2023-04-03T08:39:29;4.53;;;3.37;;
8435;SDS011;4255;48.730;9.156;2023-04-03T08:41:55;5.33;;;3.67;;
8435;SDS011;4255;48.730;9.156;2023-04-03T08:49:48;5.40;;;4.20;;
8435;SDS011;4255;48.730;9.156;2023-04-03T08:55:04;4.20;;;3.80;;
8435;SDS011;4255;48.730;9.156;2023-04-03T08:57:46;5.55;;;4.78;;
8435;SDS011;4255;48.730;9.156;2023-04-03T09:02:48;4.40;;;4.10;;
8435;SDS011;4255;48.730;9.156;2023-04-03T09:07:47;5.03;;;4.53;;
8435;SDS011;4255;48.730;9.156;2023-04-03T09:10:28;5.80;;;4.47;;
8435;SDS011;4255;48.730;9.156;2023-04-03T09:13:17;6.82;;;4.90;;
8435;SDS011;4255;48.730;9.156;2023-04-03T09:15:57;7.20;;;4.90;;
8435;SDS011;4255;48.730;9.156;2023-04-03T09:18:28;7.40;;;4.55;;
8435;SDS011;4255;48.730;9.156;2023-04-03T09:23:54;5.80;;;4.07;;
8435;SDS011;4255;48.730;9.156;2023-04-03T09:26:30;4.80;;;4.40;;
8435;SDS011;4255;48.730;9.156;2023-04-03T09:29:05;5.35;;;4.43;;
8435;SDS011;4255;48.730;9.156;2023-04-03T09:31:37;4.00;;;3.60;;
8435;SDS011;4255;48.730;9.156;2023-04-03T09:34:24;9.43;;;4.47;;
8435;SDS011;4255;48.730;9.156;2023-04-03T09:36:56;6.82;;;4.05;;
8435;SDS011;4255;48.730;9.156;2023-04-03T09:39:27;4.30;;;3.90;;
8435;SDS011;4255;48.730;9.156;2023-04-03T09:41:58;3.88;;;3.58;;
8435;SDS011;4255;48.730;9.156;2023-04-03T09:44:36;4.95;;;4.18;;
8435;SDS011;4255;48.730;9.156;2023-04-03T09:47:21;5.35;;;4.90;;
8435;SDS011;4255;48.730;9.156;2023-04-03T09:49:48;5.50;;;3.88;;
8435;SDS011;4255;48.730;9.156;2023-04-03T09:52:23;3.87;;;3.53;;
8435;SDS011;4255;48.730;9.156;2023-04-03T09:54:50;4.13;;;3.83;;
8435;SDS011;4255;48.730;9.156;2023-04-03T09:57:16;4.70;;;4.20;;
8435;SDS011;4255;48.730;9.156;2023-04-03T09:59:58;4.53;;;4.15;;
8435;SDS011;4255;48.730;9.156;2023-04-03T10:02:36;5.72;;;4.13;;
8435;SDS011;4255;48.730;9.156;2023-04-03T10:05:05;4.72;;;4.35;;
8435;SDS011;4255;48.730;9.156;2023-04-03T10:08:18;9.38;;;4.35;;
8435;SDS011;4255;48.730;9.156;2023-04-03T10:10:42;5.28;;;4.63;;
8435;SDS011;4255;48.730;9.156;2023-04-03T10:13:12;5.13;;;4.53;;
8435;SDS011;4255;48.730;9.156;2023-04-03T10:15:50;4.95;;;4.55;;
8435;SDS011;4255;48.730;9.156;2023-04-03T10:18:25;5.63;;;4.97;;
8435;SDS011;4255;48.730;9.156;2023-04-03T10:21:57;5.72;;;4.20;;
8435;SDS011;4255;48.730;9.156;2023-04-03T10:35:00;4.60;;;4.20;;
8435;SDS011;4255;48.730;9.156;2023-04-03T10:40:29;4.13;;;3.67;;
8435;SDS011;4255;48.730;9.156;2023-04-03T10:53:24;3.72;;;3.53;;
8435;SDS011;4255;48.730;9.156;2023-04-03T10:56:31;3.67;;;3.45;;
8435;SDS011;4255;48.730;9.156;2023-04-03T10:59:29;4.00;;;3.70;;
8435;SDS011;4255;48.730;9.156;2023-04-03T11:05:13;5.10;;;4.47;;
8435;SDS011;4255;48.730;9.156;2023-04-03T11:07:47;5.70;;;3.80;;
8435;SDS011;4255;48.730;9.156;2023-04-03T11:10:21;4.28;;;3.97;;
8435;SDS011;4255;48.730;9.156;2023-04-03T11:13:21;9.85;;;8.90;;
8435;SDS011;4255;48.730;9.156;2023-04-03T11:16:07;6.75;;;5.05;;
8435;SDS011;4255;48.730;9.156;2023-04-03T11:18:42;4.28;;;3.88;;
8435;SDS011;4255;48.730;9.156;2023-04-03T11:21:14;3.95;;;3.70;;
8435;SDS011;4255;48.730;9.156;2023-04-03T11:23:49;4.40;;;3.95;;
8435;SDS011;4255;48.730;9.156;2023-04-03T11:26:17;5.28;;;3.67;;
8435;SDS011;4255;48.730;9.156;2023-04-03T11:29:01;3.10;;;2.90;;
8435;SDS011;4255;48.730;9.156;2023-04-03T11:37:10;5.10;;;3.72;;
8435;SDS011;4255;48.730;9.156;2023-04-03T11:39:49;3.50;;;3.20;;
8435;SDS011;4255;48.730;9.156;2023-04-03T11:50:39;3.20;;;3.00;;
8435;SDS011;4255;48.730;9.156;2023-04-03T12:13:37;3.90;;;3.50;;
8435;SDS011;4255;48.730;9.156;2023-04-03T12:16:19;4.50;;;3.10;;
8435;SDS011;4255;48.730;9.156;2023-04-03T12:26:43;4.20;;;3.80;;
8435;SDS011;4255;48.730;9.156;2023-04-03T12:35:16;4.75;;;3.75;;
8435;SDS011;4255;48.730;9.156;2023-04-03T12:41:30;3.70;;;3.00;;
8435;SDS011;4255;48.730;9.156;2023-04-03T12:46:59;4.20;;;3.78;;
8435;SDS011;4255;48.730;9.156;2023-04-03T12:49:35;3.40;;;3.20;;
8435;SDS011;4255;48.730;9.156;2023-04-03T12:52:19;3.67;;;3.40;;
8435;SDS011;4255;48.730;9.156;2023-04-03T12:54:55;2.95;;;2.75;;
8435;SDS011;4255;48.730;9.156;2023-04-03T12:57:25;3.65;;;3.15;;
8435;SDS011;4255;48.730;9.156;2023-04-03T12:59:55;4.47;;;3.60;;
8435;SDS011;4255;48.730;9.156;2023-04-03T13:02:26;3.92;;;3.72;;
8435;SDS011;4255;48.730;9.156;2023-04-03T13:04:57;7.55;;;3.05;;
8435;SDS011;4255;48.730;9.156;2023-04-03T13:07:29;3.30;;;3.10;;
8435;SDS011;4255;48.730;9.156;2023-04-03T13:10:19;3.22;;;3.03;;
8435;SDS011;4255;48.730;9.156;2023-04-03T13:12:48;3.97;;;3.08;;
8435;SDS011;4255;48.730;9.156;2023-04-03T13:17:44;3.53;;;3.30;;
8435;SDS011;4255;48.730;9.156;2023-04-03T13:25:16;5.38;;;3.80;;
8435;SDS011;4255;48.730;9.156;2023-04-03T13:27:44;4.78;;;3.97;;
8435;SDS011;4255;48.730;9.156;2023-04-03T13:32:50;2.72;;;2.53;;
8435;SDS011;4255;48.730;9.156;2023-04-03T13:38:05;3.60;;;3.30;;
8435;SDS011;4255;48.730;9.156;2023-04-03T13:43:29;3.65;;;3.35;;
8435;SDS011;4255;48.730;9.156;2023-04-03T13:48:38;4.85;;;3.15;;
8435;SDS011;4255;48.730;9.156;2023-04-03T13:51:27;3.53;;;3.15;;
8435;SDS011;4255;48.730;9.156;2023-04-03T13:53:55;4.85;;;3.20;;
8435;SDS011;4255;48.730;9.156;2023-04-03T13:56:33;4.68;;;3.95;;
8435;SDS011;4255;48.730;9.156;2023-04-03T14:01:53;3.75;;;3.25;;
8435;SDS011;4255;48.730;9.156;2023-04-03T14:04:33;5.65;;;3.72;;
8435;SDS011;4255;48.730;9.156;2023-04-03T14:07:09;4.63;;;3.10;;
8435;SDS011;4255;48.730;9.156;2023-04-03T14:09:36;3.22;;;2.92;;
8435;SDS011;4255;48.730;9.156;2023-04-03T14:12:04;3.27;;;3.00;;
8435;SDS011;4255;48.730;9.156;2023-04-03T14:14:34;6.95;;;3.10;;
8435;SDS011;4255;48.730;9.156;2023-04-03T14:17:03;3.85;;;3.33;;
8435;SDS011;4255;48.730;9.156;2023-04-03T14:19:38;3.70;;;3.10;;
8435;SDS011;4255;48.730;9.156;2023-04-03T14:22:10;3.70;;;3.40;;
8435;SDS011;4255;48.730;9.156;2023-04-03T14:24:49;5.97;;;4.20;;
8435;SDS011;4255;48.730;9.156;2023-04-03T14:27:17;3.85;;;3.47;;
8435;SDS011;4255;48.730;9.156;2023-04-03T14:29:46;4.18;;;2.72;;
8435;SDS011;4255;48.730;9.156;2023-04-03T14:32:13;6.25;;;3.90;;
8435;SDS011;4255;48.730;9.156;2023-04-03T14:34:44;3.60;;;3.30;;
8435;SDS011;4255;48.730;9.156;2023-04-03T14:37:18;3.92;;;3.60;;
8435;SDS011;4255;48.730;9.156;2023-04-03T14:39:46;6.20;;;4.03;;
8435;SDS011;4255;48.730;9.156;2023-04-03T14:42:17;3.72;;;3.20;;
8435;SDS011;4255;48.730;9.156;2023-04-03T14:44:51;5.47;;;3.40;;
8435;SDS011;4255;48.730;9.156;2023-04-03T14:47:21;3.37;;;3.10;;
8435;SDS011;4255;48.730;9.156;2023-04-03T14:49:49;3.40;;;3.10;;
8435;SDS011;4255;48.730;9.156;2023-04-03T14:52:18;3.67;;;3.40;;
8435;SDS011;4255;48.730;9.156;2023-04-03T14:54:53;6.72;;;3.33;;
8435;SDS011;4255;48.730;9.156;2023-04-03T14:57:19;3.87;;;3.10;;
8435;SDS011;4255;48.730;9.156;2023-04-03T14:59:49;6.82;;;3.20;;
8435;SDS011;4255;48.730;9.156;2023-04-03T15:05:04;3.50;;;3.05;;
8435;SDS011;4255;48.730;9.156;2023-04-03T15:07:35;4.13;;;2.75;;
8435;SDS011;4255;48.730;9.156;2023-04-03T15:12:42;4.20;;;3.78;;
8435;SDS011;4255;48.730;9.156;2023-04-03T15:15:09;3.33;;;3.13;;
8435;SDS011;4255;48.730;9.156;2023-04-03T15:17:35;6.00;;;3.83;;
8435;SDS011;4255;48.730;9.156;2023-04-03T15:20:02;3.40;;;3.10;;
8435;SDS011;4255;48.730;9.156;2023-04-03T15:22:31;4.28;;;3.10;;
8435;SDS011;4255;48.730;9.156;2023-04-03T15:24:57;4.80;;;4.40;;
8435;SDS011;4255;48.730;9.156;2023-04-03T15:27:22;4.00;;;3.27;;
8435;SDS011;4255;48.730;9.156;2023-04-03T15:29:48;4.03;;;3.60;;
8435;SDS011;4255;48.730;9.156;2023-04-03T15:32:13;4.67;;;3.43;;
8435;SDS011;4255;48.730;9.156;2023-04-03T15:34:39;4.70;;;4.30;;
8435;SDS011;4255;48.730;9.156;2023-04-03T15:37:05;3.60;;;3.23;;
8435;SDS011;4255;48.730;9.156;2023-04-03T15:39:31;3.17;;;2.90;;
8435;SDS011;4255;48.730;9.156;2023-04-03T15:41:57;4.13;;;3.00;;
8435;SDS011;4255;48.730;9.156;2023-04-03T15:44:28;3.35;;;3.05;;
8435;SDS011;4255;48.730;9.156;2023-04-03T15:46:54;5.50;;;3.33;;
8435;SDS011;4255;48.730;9.156;2023-04-03T15:49:20;6.57;;;3.90;;
8435;SDS011;4255;48.730;9.156;2023-04-03T15:51:46;3.88;;;3.20;;
8435;SDS011;4255;48.730;9.156;2023-04-03T15:54:12;3.30;;;3.00;;
8435;SDS011;4255;48.730;9.156;2023-04-03T15:56:38;3.50;;;3.20;;
8435;SDS011;4255;48.730;9.156;2023-04-03T15:59:03;16.87;;;3.90;;
8435;SDS011;4255;48.730;9.156;2023-04-03T16:01:29;3.77;;;3.20;;
8435;SDS011;4255;48.730;9.156;2023-04-03T16:03:55;3.60;;;3.40;;
8435;SDS011;4255;48.730;9.156;2023-04-03T16:06:21;7.63;;;3.77;;
8435;SDS011;4255;48.730;9.156;2023-04-03T16:08:49;4.78;;;3.30;;
8435;SDS011;4255;48.730;9.156;2023-04-03T16:11:15;4.20;;;3.65;;
8435;SDS011;4255;48.730;9.156;2023-04-03T16:13:41;3.27;;;3.07;;
8435;SDS011;4255;48.730;9.156;2023-04-03T16:16:07;6.60;;;3.57;;
8435;SDS011;4255;48.730;9.156;2023-04-03T16:18:33;3.33;;;3.10;;
8435;SDS011;4255;48.730;9.156;2023-04-03T16:21:00;5.35;;;2.80;;
8435;SDS011;4255;48.730;9.156;2023-04-03T16:23:26;3.33;;;3.13;;
8435;SDS011;4255;48.730;9.156;2023-04-03T16:25:51;5.20;;;3.90;;
8435;SDS011;4255;48.730;9.156;2023-04-03T16:28:17;2.43;;;2.33;;
8435;SDS011;4255;48.730;9.156;2023-04-03T16:30:44;4.05;;;2.95;;
8435;SDS011;4255;48.730;9.156;2023-04-03T16:33:11;4.38;;;2.55;;
8435;SDS011;4255;48.730;9.156;2023-04-03T16:35:37;3.20;;;3.00;;
8435;SDS011;4255;48.730;9.156;2023-04-03T16:38:03;2.97;;;2.77;;
8435;SDS011;4255;48.730;9.156;2023-04-03T16:40:29;2.70;;;2.60;;
8435;SDS011;4255;48.730;9.156;2023-04-03T16:42:55;3.47;;;3.17;;
8435;SDS011;4255;48.730;9.156;2023-04-03T16:45:20;2.73;;;2.63;;
8435;SDS011;4255;48.730;9.156;2023-04-03T16:47:46;3.23;;;3.03;;
8435;SDS011;4255;48.730;9.156;2023-04-03T16:50:11;3.40;;;3.20;;
8435;SDS011;4255;48.730;9.156;2023-04-03T16:52:37;3.87;;;3.57;;
8435;SDS011;4255;48.730;9.156;2023-04-03T16:55:03;6.17;;;5.50;;
8435;SDS011;4255;48.730;9.156;2023-04-03T16:57:29;3.95;;;3.65;;
8435;SDS011;4255;48.730;9.156;2023-04-03T16:59:54;5.63;;;3.40;;
8435;SDS011;4255;48.730;9.156;2023-04-03T17:02:21;4.13;;;3.77;;
8435;SDS011;4255;48.730;9.156;2023-04-03T17:04:49;7.65;;;3.42;;
8435;SDS011;4255;48.730;9.156;2023-04-03T17:07:16;3.78;;;3.45;;
8435;SDS011;4255;48.730;9.156;2023-04-03T17:09:42;3.45;;;3.15;;
8435;SDS011;4255;48.730;9.156;2023-04-03T17:12:08;4.23;;;2.80;;
8435;SDS011;4255;48.730;9.156;2023-04-03T17:14:33;2.97;;;2.67;;
8435;SDS011;4255;48.730;9.156;2023-04-03T17:16:59;2.90;;;2.60;;
8435;SDS011;4255;48.730;9.156;2023-04-03T17:19:25;3.10;;;2.90;;
8435;SDS011;4255;48.730;9.156;2023-04-03T17:21:51;8.65;;;3.67;;
8435;SDS011;4255;48.730;9.156;2023-04-03T17:24:17;8.13;;;4.93;;
8435;SDS011;4255;48.730;9.156;2023-04-03T17:26:43;9.97;;;6.20;;
8435;SDS011;4255;48.730;9.156;2023-04-03T17:29:09;6.37;;;3.10;;
8435;SDS011;4255;48.730;9.156;2023-04-03T17:31:35;5.00;;;3.70;;
8435;SDS011;4255;48.730;9.156;2023-04-03T17:34:00;5.90;;;4.00;;